Time;durP1;ratioP1;P1;durP2;ratioP2;P2;SDS_P1;SDS_P2;PMS_P1;PMS_P2;Temp;Humidity;BMP_temperature;BMP_pressure;BME280_temperature;BME280_humidity;BME280_pressure;Samples;Min_cycle;Max_cycle;Signal;HPM_P1;HPM_P2
2023/04/24 00:00:09;;;;;;;11.05;2.03;;;;;;;;;;5054014;28;20039;-64
2023/04/24 00:02:37;;;;;;;11.40;1.90;;;;;;;;;;5054169;28;20028;-64
2023/04/24 00:05:05;;;;;;;15.38;2.28;;;;;;;;;;5054424;28;20025;-64
2023/04/24 00:07:31;;;;;;;7.68;1.83;;;;;;;;;;5054120;28;20386;-64
2023/04/24 00:09:58;;;;;;;15.82;2.00;;;;;;;;;;5054524;28;20418;-64
2023/04/24 00:12:25;;;;;;;12.30;2.40;;;;;;;;;;5053816;28;20027;-64
2023/04/24 00:14:51;;;;;;;8.60;1.73;;;;;;;;;;5053888;28;20431;-64
2023/04/24 00:17:20;;;;;;;10.38;2.22;;;;;;;;;;5054031;28;20032;-65
2023/04/24 00:19:47;;;;;;;13.68;2.35;;;;;;;;;;5053921;28;20021;-64
2023/04/24 00:22:14;;;;;;;8.20;2.20;;;;;;;;;;5054200;28;20497;-64
2023/04/24 00:24:40;;;;;;;16.73;2.33;;;;;;;;;;5053629;28;20039;-64
2023/04/24 00:27:07;;;;;;;9.15;2.08;;;;;;;;;;5053537;28;20025;-64
2023/04/24 00:29:33;;;;;;;15.90;2.10;;;;;;;;;;5053641;28;20045;-64
2023/04/24 00:31:59;;;;;;;9.95;2.38;;;;;;;;;;5053900;28;20029;-64
2023/04/24 00:34:26;;;;;;;11.45;2.10;;;;;;;;;;5053631;28;20100;-64
2023/04/24 00:36:52;;;;;;;12.65;2.22;;;;;;;;;;5053717;28;20023;-64
2023/04/24 00:39:19;;;;;;;12.48;2.03;;;;;;;;;;5053765;28;20041;-64
2023/04/24 00:41:46;;;;;;;11.02;2.05;;;;;;;;;;5053623;28;20020;-64
2023/04/24 00:44:12;;;;;;;10.90;2.38;;;;;;;;;;5053389;28;20037;-64
2023/04/24 00:46:38;;;;;;;7.90;1.83;;;;;;;;;;5053630;28;20041;-64
2023/04/24 00:49:06;;;;;;;11.10;2.58;;;;;;;;;;5053617;28;20047;-64
2023/04/24 00:51:32;;;;;;;11.27;2.40;;;;;;;;;;5053503;28;20025;-64
2023/04/24 00:53:59;;;;;;;11.13;2.25;;;;;;;;;;5053293;28;20028;-64
2023/04/24 00:56:26;;;;;;;14.23;2.17;;;;;;;;;;5053182;28;20025;-64
2023/04/24 00:58:52;;;;;;;10.23;2.08;;;;;;;;;;5053125;28;20096;-64
2023/04/24 01:01:22;;;;;;;8.18;2.33;;;;;;;;;;5052961;28;20469;-64
2023/04/24 01:03:50;;;;;;;11.13;2.13;;;;;;;;;;5053026;28;20496;-64
2023/04/24 01:06:17;;;;;;;10.68;1.92;;;;;;;;;;5053079;28;20381;-63
2023/04/24 01:08:44;;;;;;;10.48;2.42;;;;;;;;;;5052203;28;20021;-64
2023/04/24 01:11:10;;;;;;;13.93;2.50;;;;;;;;;;5052901;28;20031;-64
2023/04/24 01:13:36;;;;;;;13.50;2.30;;;;;;;;;;5052831;28;20470;-64
2023/04/24 01:16:03;;;;;;;10.45;2.13;;;;;;;;;;5052696;28;20025;-64
2023/04/24 01:18:29;;;;;;;17.95;2.58;;;;;;;;;;5052728;28;20416;-64
2023/04/24 01:20:59;;;;;;;10.65;2.08;;;;;;;;;;5052777;28;20024;-64
2023/04/24 01:23:26;;;;;;;13.23;2.75;;;;;;;;;;5052962;28;20049;-64
2023/04/24 01:25:53;;;;;;;13.40;2.15;;;;;;;;;;5052634;28;20016;-64
2023/04/24 01:28:19;;;;;;;14.68;2.45;;;;;;;;;;5052670;28;20025;-64
2023/04/24 01:30:45;;;;;;;9.13;2.20;;;;;;;;;;5052275;28;20045;-64
2023/04/24 01:33:12;;;;;;;12.55;2.50;;;;;;;;;;5052866;28;20023;-64
2023/04/24 01:35:38;;;;;;;16.90;2.90;;;;;;;;;;5052392;28;20063;-64
2023/04/24 01:38:05;;;;;;;12.02;2.70;;;;;;;;;;5052147;28;20111;-64
2023/04/24 01:40:32;;;;;;;12.15;1.92;;;;;;;;;;5052135;28;20017;-64
2023/04/24 01:42:58;;;;;;;12.07;2.33;;;;;;;;;;5052532;28;20032;-64
2023/04/24 01:45:25;;;;;;;7.72;2.00;;;;;;;;;;5052298;28;20025;-64
2023/04/24 01:47:52;;;;;;;10.10;2.25;;;;;;;;;;5052282;28;20378;-64
2023/04/24 01:50:19;;;;;;;11.77;2.33;;;;;;;;;;5052277;28;20036;-64
2023/04/24 01:52:45;;;;;;;14.23;2.55;;;;;;;;;;5050877;28;20032;-64
2023/04/24 01:55:11;;;;;;;15.25;2.35;;;;;;;;;;5051932;28;20017;-64
2023/04/24 01:57:38;;;;;;;15.57;2.35;;;;;;;;;;5051969;28;20029;-64
2023/04/24 02:00:06;;;;;;;13.65;2.35;;;;;;;;;;5051993;28;20017;-64
2023/04/24 02:02:32;;;;;;;18.88;2.28;;;;;;;;;;5051995;28;20377;-64
2023/04/24 02:04:59;;;;;;;12.35;2.10;;;;;;;;;;5052419;28;20098;-64
2023/04/24 02:07:25;;;;;;;12.50;2.50;;;;;;;;;;5052002;28;20486;-64
2023/04/24 02:09:51;;;;;;;15.05;2.05;;;;;;;;;;5051854;28;20055;-64
2023/04/24 02:12:18;;;;;;;13.77;2.17;;;;;;;;;;5052019;28;20390;-63
2023/04/24 02:14:44;;;;;;;16.80;2.55;;;;;;;;;;5051714;28;20470;-64
2023/04/24 02:17:12;;;;;;;12.02;2.35;;;;;;;;;;5051760;28;20026;-64
2023/04/24 02:19:38;;;;;;;13.73;2.33;;;;;;;;;;5052012;28;20033;-64
2023/04/24 02:22:05;;;;;;;14.73;2.60;;;;;;;;;;5051787;28;20013;-64
2023/04/24 02:24:31;;;;;;;16.88;2.30;;;;;;;;;;5051613;28;20032;-64
2023/04/24 02:26:57;;;;;;;10.75;1.88;;;;;;;;;;5051687;28;20017;-64
2023/04/24 02:29:24;;;;;;;13.13;2.17;;;;;;;;;;5051520;28;20041;-64
2023/04/24 02:31:50;;;;;;;8.45;1.88;;;;;;;;;;5051636;28;20025;-64
2023/04/24 02:34:16;;;;;;;14.43;2.47;;;;;;;;;;5051614;28;20097;-64
2023/04/24 02:36:43;;;;;;;9.55;2.22;;;;;;;;;;5051421;28;20393;-64
2023/04/24 02:39:09;;;;;;;11.85;2.20;;;;;;;;;;5051649;28;20037;-64
2023/04/24 02:41:36;;;;;;;12.23;1.90;;;;;;;;;;5051586;28;20024;-63
2023/04/24 02:44:03;;;;;;;13.65;2.20;;;;;;;;;;5051519;28;20037;-65
2023/04/24 02:46:29;;;;;;;10.38;2.08;;;;;;;;;;5051583;28;20109;-64
2023/04/24 02:48:56;;;;;;;14.27;1.98;;;;;;;;;;5051767;28;20029;-64
2023/04/24 02:51:22;;;;;;;14.45;2.78;;;;;;;;;;5051471;28;20059;-64
2023/04/24 02:53:48;;;;;;;14.68;2.50;;;;;;;;;;5051582;28;20035;-64
2023/04/24 02:56:14;;;;;;;12.77;1.92;;;;;;;;;;5051528;28;20025;-64
2023/04/24 02:58:42;;;;;;;13.15;2.53;;;;;;;;;;5051468;28;20037;-64
2023/04/24 03:01:09;;;;;;;16.42;2.25;;;;;;;;;;5051276;28;20037;-63
2023/04/24 03:03:36;;;;;;;9.57;2.22;;;;;;;;;;5051698;28;20025;-64
2023/04/24 03:06:02;;;;;;;10.10;2.20;;;;;;;;;;5051374;28;20033;-63
2023/04/24 03:08:29;;;;;;;9.13;2.30;;;;;;;;;;5051455;28;20029;-64
2023/04/24 03:10:55;;;;;;;13.82;2.20;;;;;;;;;;5051807;28;20032;-63
2023/04/24 03:13:21;;;;;;;9.63;1.70;;;;;;;;;;5051215;28;20029;-64
2023/04/24 03:15:48;;;;;;;10.20;1.70;;;;;;;;;;5051527;28;20017;-64
2023/04/24 03:18:14;;;;;;;12.80;2.03;;;;;;;;;;5051192;28;20490;-63
2023/04/24 03:20:41;;;;;;;8.15;1.85;;;;;;;;;;5051410;28;20025;-64
2023/04/24 03:23:07;;;;;;;9.75;2.00;;;;;;;;;;5051464;28;20066;-64
2023/04/24 03:25:33;;;;;;;9.85;2.10;;;;;;;;;;5051460;28;20021;-64
2023/04/24 03:28:00;;;;;;;10.00;1.65;;;;;;;;;;5051448;28;20078;-64
2023/04/24 03:30:26;;;;;;;8.20;2.03;;;;;;;;;;5051198;28;20056;-64
2023/04/24 03:32:52;;;;;;;11.98;2.10;;;;;;;;;;5054357;28;20040;-64
2023/04/24 03:35:19;;;;;;;7.55;2.08;;;;;;;;;;5054763;28;20051;-64
2023/04/24 03:37:45;;;;;;;11.30;2.25;;;;;;;;;;5054580;28;20404;-64
2023/04/24 03:40:12;;;;;;;10.65;1.90;;;;;;;;;;5054737;28;20490;-64
2023/04/24 03:42:38;;;;;;;17.75;2.83;;;;;;;;;;5054759;28;20037;-64
2023/04/24 03:45:05;;;;;;;11.70;2.30;;;;;;;;;;5055166;28;20029;-64
2023/04/24 03:47:31;;;;;;;9.73;2.38;;;;;;;;;;5054737;28;20078;-64
2023/04/24 03:49:57;;;;;;;8.85;2.00;;;;;;;;;;5054288;28;20025;-64
2023/04/24 03:52:24;;;;;;;7.78;1.98;;;;;;;;;;5054431;28;20043;-64
2023/04/24 03:54:50;;;;;;;9.45;2.00;;;;;;;;;;5054359;28;20511;-64
2023/04/24 03:57:16;;;;;;;8.75;2.28;;;;;;;;;;5054143;28;20036;-64
2023/04/24 03:59:43;;;;;;;12.52;2.10;;;;;;;;;;5054537;28;20029;-64
2023/04/24 04:02:09;;;;;;;11.13;2.10;;;;;;;;;;5054304;28;20032;-64
2023/04/24 04:04:35;;;;;;;8.95;2.00;;;;;;;;;;5054369;28;20029;-64
2023/04/24 04:07:02;;;;;;;11.88;2.85;;;;;;;;;;5054488;28;20020;-64
2023/04/24 04:09:29;;;;;;;10.90;3.30;;;;;;;;;;5053986;28;20078;-63
2023/04/24 04:11:55;;;;;;;13.65;2.80;;;;;;;;;;5054232;28;20027;-64
2023/04/24 04:14:23;;;;;;;10.45;3.63;;;;;;;;;;5053993;28;20017;-64
2023/04/24 04:16:49;;;;;;;8.13;2.72;;;;;;;;;;5053900;28;20024;-64
2023/04/24 04:19:15;;;;;;;9.55;2.42;;;;;;;;;;5053588;28;20036;-64
2023/04/24 04:21:42;;;;;;;10.13;2.92;;;;;;;;;;5054264;28;20021;-64
2023/04/24 04:24:09;;;;;;;14.15;3.60;;;;;;;;;;5053756;28;20419;-64
2023/04/24 04:26:37;;;;;;;13.50;4.15;;;;;;;;;;5053724;28;20037;-64
2023/04/24 04:29:04;;;;;;;11.68;4.05;;;;;;;;;;5053752;28;20536;-64
2023/04/24 04:31:30;;;;;;;9.75;3.45;;;;;;;;;;5053781;28;20047;-64
2023/04/24 04:33:57;;;;;;;11.25;2.42;;;;;;;;;;5053641;28;20140;-64
2023/04/24 04:36:23;;;;;;;8.27;1.90;;;;;;;;;;5053834;28;20459;-64
2023/04/24 04:38:50;;;;;;;9.35;2.30;;;;;;;;;;5053469;28;20417;-63
2023/04/24 04:41:18;;;;;;;13.65;2.15;;;;;;;;;;5053421;28;20021;-64
2023/04/24 04:43:44;;;;;;;8.75;1.80;;;;;;;;;;5052412;28;20033;-64
2023/04/24 04:46:11;;;;;;;11.73;1.90;;;;;;;;;;5053688;28;20032;-64
2023/04/24 04:48:37;;;;;;;9.75;1.90;;;;;;;;;;5053304;28;20017;-64
2023/04/24 04:51:04;;;;;;;7.00;1.60;;;;;;;;;;5053272;28;20021;-64
2023/04/24 04:53:30;;;;;;;14.48;2.33;;;;;;;;;;5053203;28;20021;-64
2023/04/24 04:55:57;;;;;;;5.72;1.60;;;;;;;;;;5053164;28;20029;-64
2023/04/24 04:58:23;;;;;;;7.53;2.22;;;;;;;;;;5052026;28;20094;-63
2023/04/24 05:00:49;;;;;;;9.07;1.40;;;;;;;;;;5053028;28;20455;-64
2023/04/24 05:03:16;;;;;;;8.98;1.60;;;;;;;;;;5052826;28;20035;-64
2023/04/24 05:05:42;;;;;;;12.45;2.30;;;;;;;;;;5053122;28;20385;-64
2023/04/24 05:08:08;;;;;;;10.18;1.45;;;;;;;;;;5052872;28;20048;-64
2023/04/24 05:10:36;;;;;;;10.43;2.08;;;;;;;;;;5052761;28;20095;-64
2023/04/24 05:13:04;;;;;;;8.48;1.80;;;;;;;;;;5052811;28;20488;-64
2023/04/24 05:15:30;;;;;;;5.78;1.45;;;;;;;;;;5052582;28;20029;-64
2023/04/24 05:17:57;;;;;;;7.80;1.60;;;;;;;;;;5052369;28;20045;-64
2023/04/24 05:20:23;;;;;;;9.82;2.03;;;;;;;;;;5053077;28;20029;-64
2023/04/24 05:22:49;;;;;;;7.97;1.42;;;;;;;;;;5052776;28;20451;-64
2023/04/24 05:25:16;;;;;;;7.55;1.73;;;;;;;;;;5052899;28;20025;-64
2023/04/24 05:27:42;;;;;;;8.48;1.77;;;;;;;;;;5052888;28;20017;-64
2023/04/24 05:30:09;;;;;;;6.50;1.83;;;;;;;;;;5052419;28;20049;-64
2023/04/24 05:32:35;;;;;;;9.10;1.77;;;;;;;;;;5052227;28;20033;-64
2023/04/24 05:35:02;;;;;;;9.25;1.67;;;;;;;;;;5052487;28;20025;-64
2023/04/24 05:37:28;;;;;;;7.38;1.60;;;;;;;;;;5051305;28;20053;-64
2023/04/24 05:39:54;;;;;;;7.32;1.83;;;;;;;;;;5052253;28;20500;-64
2023/04/24 05:42:20;;;;;;;6.50;1.90;;;;;;;;;;5052750;28;20033;-64
2023/04/24 05:44:47;;;;;;;6.13;1.80;;;;;;;;;;5052229;28;20020;-64
2023/04/24 05:47:13;;;;;;;4.93;1.42;;;;;;;;;;5051889;28;20036;-64
2023/04/24 05:49:39;;;;;;;8.30;1.73;;;;;;;;;;5052434;28;20027;-64
2023/04/24 05:52:08;;;;;;;7.95;1.95;;;;;;;;;;5052092;28;20655;-64
2023/04/24 05:54:35;;;;;;;9.23;1.63;;;;;;;;;;5051742;28;20032;-64
2023/04/24 05:57:07;;;;;;;5.00;1.48;;;;;;;;;;5052106;28;20032;-64
2023/04/24 05:59:34;;;;;;;7.90;1.50;;;;;;;;;;5051993;28;20529;-64
2023/04/24 06:02:00;;;;;;;10.32;1.80;;;;;;;;;;5051894;28;20027;-64
2023/04/24 06:04:27;;;;;;;5.15;1.45;;;;;;;;;;5052054;28;20039;-64
2023/04/24 06:06:55;;;;;;;7.55;2.20;;;;;;;;;;5051837;28;20397;-64
2023/04/24 06:09:22;;;;;;;5.53;1.17;;;;;;;;;;5051924;28;20021;-64
2023/04/24 06:11:49;;;;;;;7.78;1.10;;;;;;;;;;5051845;28;20036;-64
2023/04/24 06:14:16;;;;;;;1.88;0.60;;;;;;;;;;5048603;28;20047;-64
2023/04/24 06:16:43;;;;;;;4.93;0.90;;;;;;;;;;5050504;28;20508;-64
2023/04/24 06:19:09;;;;;;;2.35;0.68;;;;;;;;;;5051518;28;20040;-64
2023/04/24 06:21:35;;;;;;;4.32;0.82;;;;;;;;;;5051650;28;20516;-65
2023/04/24 06:24:02;;;;;;;10.13;1.05;;;;;;;;;;5051182;28;20031;-65
2023/04/24 06:26:28;;;;;;;5.63;1.25;;;;;;;;;;5051565;28;20047;-64
2023/04/24 06:28:54;;;;;;;1.48;0.70;;;;;;;;;;5050659;28;20052;-65
2023/04/24 06:31:21;;;;;;;2.10;0.73;;;;;;;;;;5051220;28;20021;-64
2023/04/24 06:33:49;;;;;;;5.13;1.25;;;;;;;;;;5050204;28;20028;-65
2023/04/24 06:36:15;;;;;;;4.10;1.75;;;;;;;;;;5050309;28;20017;-64
2023/04/24 06:38:42;;;;;;;15.43;5.95;;;;;;;;;;5051336;28;20044;-64
2023/04/24 06:41:10;;;;;;;12.05;6.35;;;;;;;;;;5048144;28;20021;-64
2023/04/24 06:43:36;;;;;;;11.85;5.72;;;;;;;;;;5050914;28;20033;-64
2023/04/24 06:46:03;;;;;;;13.85;5.97;;;;;;;;;;5051069;28;20389;-64
2023/04/24 06:48:29;;;;;;;10.23;4.05;;;;;;;;;;5050077;28;20013;-64
2023/04/24 06:50:56;;;;;;;6.28;2.75;;;;;;;;;;5049273;28;20029;-64
2023/04/24 06:53:22;;;;;;;5.03;1.85;;;;;;;;;;5050627;28;20029;-64
2023/04/24 06:55:48;;;;;;;13.52;1.83;;;;;;;;;;5049820;28;20021;-64
2023/04/24 06:58:15;;;;;;;3.97;1.40;;;;;;;;;;5049646;28;20469;-64
2023/04/24 07:00:42;;;;;;;6.22;1.30;;;;;;;;;;5050747;28;20043;-65
2023/04/24 07:03:08;;;;;;;2.63;0.80;;;;;;;;;;5050167;28;20232;-64
2023/04/24 07:05:35;;;;;;;5.45;0.95;;;;;;;;;;5051107;28;20051;-64
2023/04/24 07:08:02;;;;;;;2.55;0.70;;;;;;;;;;5054074;28;20009;-64
2023/04/24 07:10:28;;;;;;;2.63;0.88;;;;;;;;;;5053823;28;20090;-65
2023/04/24 07:12:56;;;;;;;5.28;1.00;;;;;;;;;;5055505;28;20074;-64
2023/04/24 07:15:23;;;;;;;5.78;0.93;;;;;;;;;;5054038;28;20036;-64
2023/04/24 07:17:50;;;;;;;3.33;0.70;;;;;;;;;;5054308;28;20047;-65
2023/04/24 07:20:16;;;;;;;5.47;1.10;;;;;;;;;;5053896;28;20025;-63
2023/04/24 07:22:42;;;;;;;6.43;1.52;;;;;;;;;;5053592;28;20388;-64
2023/04/24 07:25:09;;;;;;;4.13;1.02;;;;;;;;;;5063460;28;20035;-64
2023/04/24 07:27:36;;;;;;;3.05;0.90;;;;;;;;;;5053857;28;20021;-64
2023/04/24 07:30:03;;;;;;;4.88;1.20;;;;;;;;;;5053766;28;20114;-65
2023/04/24 07:32:30;;;;;;;4.22;0.98;;;;;;;;;;5054185;28;20592;-64
2023/04/24 07:34:56;;;;;;;4.32;0.82;;;;;;;;;;5054669;28;20033;-64
2023/04/24 07:37:23;;;;;;;5.75;1.00;;;;;;;;;;5053092;28;20025;-63
2023/04/24 07:39:50;;;;;;;4.20;1.17;;;;;;;;;;5054238;28;20025;-63
2023/04/24 07:42:16;;;;;;;4.68;1.27;;;;;;;;;;5054106;28;20025;-64
2023/04/24 07:44:42;;;;;;;2.92;0.90;;;;;;;;;;5054090;28;20078;-64
2023/04/24 07:47:08;;;;;;;3.03;0.73;;;;;;;;;;5054368;28;20036;-64
2023/04/24 07:49:35;;;;;;;4.35;1.02;;;;;;;;;;5054037;28;20021;-64
2023/04/24 07:52:02;;;;;;;4.07;1.13;;;;;;;;;;5054409;28;20023;-64
2023/04/24 07:54:29;;;;;;;3.55;0.88;;;;;;;;;;5054355;28;20025;-64
2023/04/24 07:56:55;;;;;;;2.65;0.85;;;;;;;;;;5054246;28;20024;-64
2023/04/24 07:59:21;;;;;;;4.35;1.00;;;;;;;;;;5053877;28;20482;-64
2023/04/24 08:01:48;;;;;;;2.10;0.77;;;;;;;;;;5054186;28;20027;-65
2023/04/24 08:04:15;;;;;;;2.00;0.77;;;;;;;;;;5054040;28;20039;-64
2023/04/24 08:06:41;;;;;;;3.72;0.70;;;;;;;;;;5053830;28;20024;-64
2023/04/24 08:09:07;;;;;;;3.67;0.93;;;;;;;;;;5054032;28;20025;-64
2023/04/24 08:11:34;;;;;;;3.30;0.70;;;;;;;;;;5052415;28;20031;-64
2023/04/24 08:14:00;;;;;;;2.80;0.65;;;;;;;;;;5053704;28;20013;-65
2023/04/24 08:16:26;;;;;;;2.63;0.88;;;;;;;;;;5054093;28;20025;-64
2023/04/24 08:18:53;;;;;;;2.17;0.88;;;;;;;;;;5053541;28;20425;-64
2023/04/24 08:21:20;;;;;;;6.15;0.90;;;;;;;;;;5053712;28;20367;-64
2023/04/24 08:23:47;;;;;;;4.03;0.90;;;;;;;;;;5053775;28;20024;-65
2023/04/24 08:26:13;;;;;;;3.22;0.90;;;;;;;;;;5053618;28;20031;-64
2023/04/24 08:28:40;;;;;;;4.40;0.90;;;;;;;;;;5053371;28;20055;-64
2023/04/24 08:31:06;;;;;;;5.15;0.75;;;;;;;;;;5052587;28;20458;-64
2023/04/24 08:33:36;;;;;;;1.48;0.63;;;;;;;;;;5053451;28;20039;-64
2023/04/24 08:36:02;;;;;;;2.85;0.80;;;;;;;;;;5053639;28;20101;-65
2023/04/24 08:38:29;;;;;;;3.50;0.82;;;;;;;;;;5053921;28;20033;-65
2023/04/24 08:40:56;;;;;;;2.30;0.70;;;;;;;;;;5053517;28;20024;-65
2023/04/24 08:43:23;;;;;;;1.52;0.70;;;;;;;;;;5053701;28;20027;-65
2023/04/24 08:45:49;;;;;;;2.58;0.80;;;;;;;;;;5053614;28;20031;-65
2023/04/24 08:48:16;;;;;;;2.72;0.70;;;;;;;;;;5053573;28;20094;-66
2023/04/24 08:50:42;;;;;;;3.88;1.02;;;;;;;;;;5053363;28;20499;-65
2023/04/24 08:53:09;;;;;;;1.73;0.80;;;;;;;;;;5053527;28;20043;-65
2023/04/24 08:55:36;;;;;;;3.70;0.88;;;;;;;;;;5053316;28;20027;-65
2023/04/24 08:58:03;;;;;;;4.65;1.10;;;;;;;;;;5053277;28;20033;-65
2023/04/24 09:00:30;;;;;;;3.28;0.68;;;;;;;;;;5053385;28;20021;-65
2023/04/24 09:02:56;;;;;;;3.75;0.65;;;;;;;;;;5053325;28;20025;-65
2023/04/24 09:05:26;;;;;;;4.40;0.90;;;;;;;;;;5053509;28;20115;-65
2023/04/24 09:07:56;;;;;;;7.00;1.10;;;;;;;;;;5053159;28;20033;-64
2023/04/24 09:10:23;;;;;;;3.90;1.10;;;;;;;;;;5053339;28;20028;-65
2023/04/24 09:12:51;;;;;;;4.53;1.17;;;;;;;;;;5053559;28;20035;-65
2023/04/24 09:15:20;;;;;;;1.55;0.98;;;;;;;;;;5052794;28;20082;-64
2023/04/24 09:17:46;;;;;;;4.60;1.50;;;;;;;;;;5053027;28;20090;-65
2023/04/24 09:20:13;;;;;;;9.75;1.23;;;;;;;;;;5052696;28;20416;-65
2023/04/24 09:22:39;;;;;;;3.80;1.20;;;;;;;;;;5052724;28;20025;-65
2023/04/24 09:25:07;;;;;;;5.30;1.38;;;;;;;;;;5052748;28;20396;-65
2023/04/24 09:27:34;;;;;;;4.97;1.20;;;;;;;;;;5053386;28;20017;-65
2023/04/24 09:30:01;;;;;;;3.97;1.20;;;;;;;;;;5051752;28;20049;-65
2023/04/24 09:32:29;;;;;;;4.15;1.25;;;;;;;;;;5052606;28;20379;-65
2023/04/24 09:35:09;;;;;;;3.80;1.20;;;;;;;;;;5052446;28;20572;-66
2023/04/24 09:37:37;;;;;;;3.28;1.38;;;;;;;;;;5051962;28;20085;-65
2023/04/24 09:40:13;;;;;;;2.17;1.00;;;;;;;;;;5052212;28;20020;-65
2023/04/24 09:42:40;;;;;;;2.95;1.27;;;;;;;;;;5052091;28;20494;-65
2023/04/24 09:45:11;;;;;;;3.20;1.15;;;;;;;;;;5052662;28;20032;-64
2023/04/24 09:47:38;;;;;;;2.65;1.27;;;;;;;;;;5052002;28;20037;-66
2023/04/24 09:50:14;;;;;;;4.40;1.33;;;;;;;;;;5051999;28;20025;-66
2023/04/24 09:52:45;;;;;;;2.17;1.23;;;;;;;;;;5052576;28;20047;-66
2023/04/24 09:55:19;;;;;;;3.53;0.98;;;;;;;;;;5052077;28;20033;-67
2023/04/24 09:57:52;;;;;;;1.38;0.80;;;;;;;;;;5051084;28;20041;-66
2023/04/24 10:00:26;;;;;;;1.88;0.80;;;;;;;;;;5051865;28;20021;-68
2023/04/24 10:02:58;;;;;;;2.17;1.02;;;;;;;;;;5051774;28;20028;-66
2023/04/24 10:05:25;;;;;;;3.25;1.02;;;;;;;;;;5052253;28;20039;-66
2023/04/24 10:07:51;;;;;;;5.30;1.55;;;;;;;;;;5051761;28;20488;-66
2023/04/24 10:10:18;;;;;;;4.20;1.50;;;;;;;;;;5052779;28;20027;-65
2023/04/24 10:12:44;;;;;;;2.75;1.30;;;;;;;;;;5052111;28;20035;-67
2023/04/24 10:15:12;;;;;;;4.35;1.30;;;;;;;;;;5051977;28;20013;-64
2023/04/24 10:17:39;;;;;;;5.78;1.60;;;;;;;;;;5051857;28;20502;-64
2023/04/24 10:20:06;;;;;;;5.18;2.22;;;;;;;;;;5051789;28;20508;-64
2023/04/24 10:22:33;;;;;;;2.70;1.00;;;;;;;;;;5051590;28;20021;-64
2023/04/24 10:24:59;;;;;;;5.00;1.92;;;;;;;;;;5051717;28;20035;-64
2023/04/24 10:27:27;;;;;;;4.70;1.50;;;;;;;;;;5051699;28;20035;-64
2023/04/24 10:29:54;;;;;;;4.13;2.10;;;;;;;;;;5051718;28;20055;-64
2023/04/24 10:32:20;;;;;;;7.80;3.95;;;;;;;;;;5051865;28;20486;-64
2023/04/24 10:34:46;;;;;;;5.20;1.63;;;;;;;;;;5048666;28;20035;-64
2023/04/24 10:37:13;;;;;;;6.93;3.10;;;;;;;;;;5050539;28;20035;-64
2023/04/24 10:39:40;;;;;;;2.05;1.20;;;;;;;;;;5051629;28;20033;-64
2023/04/24 10:42:16;;;;;;;3.00;1.08;;;;;;;;;;5053520;28;20524;-65
2023/04/24 10:44:43;;;;;;;1.30;0.85;;;;;;;;;;5055513;28;20021;-64
2023/04/24 10:47:15;;;;;;;3.22;1.00;;;;;;;;;;5055677;28;20027;-64
2023/04/24 10:49:41;;;;;;;4.13;1.75;;;;;;;;;;5055672;28;20021;-64
2023/04/24 10:52:09;;;;;;;4.45;2.03;;;;;;;;;;5055266;28;20029;-64
2023/04/24 10:54:41;;;;;;;5.47;2.88;;;;;;;;;;5055490;28;20032;-64
2023/04/24 10:57:20;;;;;;;3.20;1.70;;;;;;;;;;5055558;28;20031;-64
2023/04/24 11:00:06;;;;;;;4.30;2.22;;;;;;;;;;5055324;28;20036;-64
2023/04/24 11:02:40;;;;;;;3.83;1.80;;;;;;;;;;5049594;28;20029;-65
2023/04/24 11:05:07;;;;;;;2.20;0.98;;;;;;;;;;5054627;28;20383;-66
2023/04/24 11:07:52;;;;;;;4.68;1.80;;;;;;;;;;5063366;28;20024;-65
2023/04/24 11:10:27;;;;;;;3.38;1.80;;;;;;;;;;5075228;28;20040;-64
2023/04/24 11:12:54;;;;;;;2.80;1.38;;;;;;;;;;5074532;28;20515;-65
2023/04/24 11:15:21;;;;;;;2.35;1.00;;;;;;;;;;5074934;28;20031;-66
2023/04/24 11:17:47;;;;;;;4.47;2.00;;;;;;;;;;5074864;28;20045;-64
2023/04/24 11:20:17;;;;;;;2.95;1.80;;;;;;;;;;5072282;28;20409;-63
2023/04/24 11:22:43;;;;;;;4.53;2.67;;;;;;;;;;5053416;28;20408;-66
2023/04/24 11:25:11;;;;;;;3.38;1.77;;;;;;;;;;5054818;28;20039;-65
2023/04/24 11:27:42;;;;;;;2.58;1.25;;;;;;;;;;5054971;28;20025;-64
2023/04/24 11:30:10;;;;;;;2.55;1.35;;;;;;;;;;5054139;28;20051;-64
2023/04/24 11:32:43;;;;;;;2.28;1.13;;;;;;;;;;5054041;28;20086;-65
2023/04/24 11:35:15;;;;;;;3.05;1.50;;;;;;;;;;5054038;28;20021;-66
2023/04/24 11:37:42;;;;;;;4.38;1.13;;;;;;;;;;5052887;28;20436;-65
2023/04/24 11:40:12;;;;;;;3.17;1.30;;;;;;;;;;5063206;28;20477;-65
2023/04/24 11:42:39;;;;;;;2.90;1.40;;;;;;;;;;5053874;28;20036;-66
2023/04/24 11:45:13;;;;;;;7.90;2.10;;;;;;;;;;5053424;28;20490;-65
2023/04/24 11:47:40;;;;;;;2.30;1.00;;;;;;;;;;5043159;28;20029;-64
2023/04/24 11:50:08;;;;;;;4.88;1.33;;;;;;;;;;5066699;28;20390;-64
2023/04/24 11:52:37;;;;;;;3.15;1.20;;;;;;;;;;5053336;28;20017;-65
2023/04/24 11:55:04;;;;;;;4.22;1.92;;;;;;;;;;5054424;28;20021;-66
2023/04/24 11:57:34;;;;;;;3.55;1.20;;;;;;;;;;5053690;28;20401;-65
2023/04/24 12:00:01;;;;;;;1.92;1.27;;;;;;;;;;5052949;28;20039;-64
2023/04/24 12:02:28;;;;;;;3.80;1.50;;;;;;;;;;5051128;28;20478;-66
2023/04/24 12:04:54;;;;;;;3.42;1.50;;;;;;;;;;5053528;28;20028;-65
2023/04/24 12:07:23;;;;;;;4.20;1.90;;;;;;;;;;5052466;28;20371;-65
2023/04/24 12:09:56;;;;;;;2.67;1.25;;;;;;;;;;5049695;28;20047;-64
2023/04/24 12:12:25;;;;;;;2.97;1.50;;;;;;;;;;5054094;28;20029;-65
2023/04/24 12:14:58;;;;;;;4.18;1.40;;;;;;;;;;5054931;28;20047;-65
2023/04/24 12:17:30;;;;;;;2.75;1.27;;;;;;;;;;5073722;28;20047;-64
2023/04/24 12:20:00;;;;;;;3.75;2.60;;;;;;;;;;5051308;28;20036;-65
2023/04/24 12:22:27;;;;;;;5.32;3.00;;;;;;;;;;5053541;28;20032;-64
2023/04/24 12:25:01;;;;;;;4.38;1.88;;;;;;;;;;5053602;28;20029;-67
2023/04/24 12:27:29;;;;;;;4.38;2.80;;;;;;;;;;5033242;28;20035;-65
2023/04/24 12:29:59;;;;;;;2.78;1.95;;;;;;;;;;5040113;28;20097;-65
2023/04/24 12:32:25;;;;;;;3.58;1.80;;;;;;;;;;5051060;28;20024;-65
2023/04/24 12:34:52;;;;;;;3.95;1.90;;;;;;;;;;5052309;28;20025;-65
2023/04/24 12:37:19;;;;;;;5.03;1.70;;;;;;;;;;5053317;28;20025;-65
2023/04/24 12:40:05;;;;;;;4.10;1.80;;;;;;;;;;5051153;28;20494;-63
2023/04/24 12:42:32;;;;;;;4.15;1.70;;;;;;;;;;5032934;28;20417;-64
2023/04/24 12:44:59;;;;;;;2.72;1.50;;;;;;;;;;5034291;28;20029;-66
2023/04/24 12:47:26;;;;;;;4.35;1.52;;;;;;;;;;5052694;28;20029;-63
2023/04/24 12:49:52;;;;;;;5.45;2.50;;;;;;;;;;5051002;28;20485;-63
2023/04/24 12:52:19;;;;;;;3.47;2.00;;;;;;;;;;5054147;28;20397;-63
2023/04/24 12:54:46;;;;;;;2.80;1.38;;;;;;;;;;5052494;28;20014;-64
2023/04/24 12:57:12;;;;;;;3.40;1.90;;;;;;;;;;5052760;28;20029;-64
2023/04/24 12:59:39;;;;;;;5.55;3.20;;;;;;;;;;5052688;28;20039;-66
2023/04/24 13:02:06;;;;;;;7.72;3.40;;;;;;;;;;5051523;28;20376;-65
2023/04/24 13:04:33;;;;;;;6.95;2.35;;;;;;;;;;5051493;28;20025;-65
2023/04/24 13:06:59;;;;;;;3.78;1.77;;;;;;;;;;5052604;28;20037;-65
2023/04/24 13:09:25;;;;;;;2.72;1.42;;;;;;;;;;5052292;28;20029;-65
2023/04/24 13:11:52;;;;;;;4.03;1.30;;;;;;;;;;5052775;28;20035;-65
2023/04/24 13:14:18;;;;;;;4.30;1.60;;;;;;;;;;5049987;28;20486;-64
2023/04/24 13:16:44;;;;;;;3.42;1.35;;;;;;;;;;5052067;28;20020;-66
2023/04/24 13:19:11;;;;;;;3.05;1.48;;;;;;;;;;5056722;28;20043;-65
2023/04/24 13:21:37;;;;;;;2.08;1.15;;;;;;;;;;5053823;28;20715;-65
2023/04/24 13:24:04;;;;;;;11.40;2.92;;;;;;;;;;5050584;28;20033;-66
2023/04/24 13:26:31;;;;;;;5.25;1.75;;;;;;;;;;5062972;28;20021;-65
2023/04/24 13:28:57;;;;;;;4.18;1.38;;;;;;;;;;5051229;28;20055;-65
2023/04/24 13:31:23;;;;;;;5.18;1.30;;;;;;;;;;5054001;28;20025;-64
2023/04/24 13:33:50;;;;;;;6.15;2.47;;;;;;;;;;5050934;28;20028;-63
2023/04/24 13:36:17;;;;;;;7.45;2.22;;;;;;;;;;5060766;28;20016;-65
2023/04/24 13:38:44;;;;;;;7.18;2.38;;;;;;;;;;5050157;28;20049;-65
2023/04/24 13:41:10;;;;;;;3.70;2.00;;;;;;;;;;5055248;28;20021;-65
2023/04/24 13:43:37;;;;;;;4.93;1.75;;;;;;;;;;5051620;28;20033;-65
2023/04/24 13:46:03;;;;;;;6.95;2.80;;;;;;;;;;5051268;28;20009;-65
2023/04/24 13:48:30;;;;;;;3.47;1.60;;;;;;;;;;5051275;28;20033;-65
2023/04/24 13:50:56;;;;;;;4.45;1.70;;;;;;;;;;5051635;28;20020;-65
2023/04/24 13:53:23;;;;;;;6.28;2.47;;;;;;;;;;5051332;28;20025;-65
2023/04/24 13:55:49;;;;;;;3.67;1.70;;;;;;;;;;5050915;28;20023;-65
2023/04/24 13:58:15;;;;;;;5.55;2.05;;;;;;;;;;5054103;28;20398;-65
2023/04/24 14:00:42;;;;;;;7.43;1.75;;;;;;;;;;5050965;28;20043;-64
2023/04/24 14:03:08;;;;;;;7.15;3.08;;;;;;;;;;5051898;28;20043;-64
2023/04/24 14:05:34;;;;;;;6.40;1.30;;;;;;;;;;5051645;28;20393;-64
2023/04/24 14:08:01;;;;;;;5.07;1.67;;;;;;;;;;5048099;28;20504;-65
2023/04/24 14:10:27;;;;;;;3.40;1.40;;;;;;;;;;5050527;28;20390;-66
2023/04/24 14:12:54;;;;;;;6.18;2.00;;;;;;;;;;5050970;28;20021;-64
2023/04/24 14:15:21;;;;;;;4.10;2.08;;;;;;;;;;5051342;28;20025;-65
2023/04/24 14:17:49;;;;;;;5.07;1.88;;;;;;;;;;5051515;28;20017;-64
2023/04/24 14:20:15;;;;;;;5.65;1.60;;;;;;;;;;5049938;28;20025;-65
2023/04/24 14:22:41;;;;;;;2.63;1.35;;;;;;;;;;5051171;28;20024;-64
2023/04/24 14:25:08;;;;;;;2.13;1.15;;;;;;;;;;5048732;28;20033;-65
2023/04/24 14:27:34;;;;;;;3.08;1.50;;;;;;;;;;5050853;28;20093;-65
2023/04/24 14:30:01;;;;;;;4.65;1.40;;;;;;;;;;5050845;28;20049;-65
2023/04/24 14:32:28;;;;;;;3.22;1.63;;;;;;;;;;5050897;28;20086;-64
2023/04/24 14:34:54;;;;;;;2.97;1.30;;;;;;;;;;5051211;28;20025;-63
2023/04/24 14:37:20;;;;;;;3.75;1.50;;;;;;;;;;5050188;28;20374;-63